Time;durP1;ratioP1;P1;durP2;ratioP2;P2;SDS_P1;SDS_P2;PMS_P1;PMS_P2;Temp;Humidity;BMP_temperature;BMP_pressure;BME280_temperature;BME280_humidity;BME280_pressure;Samples;Min_cycle;Max_cycle;Signal;HPM_P1;HPM_P2
2022/06/21 00:01:39;;;;;;;5.97;4.53;;;18.50;99.90;;;;;;5014961;28;20121;-51
2022/06/21 00:04:05;;;;;;;11.20;7.05;;;18.50;99.90;;;;;;5016880;28;20042;-51
2022/06/21 00:06:32;;;;;;;8.88;6.30;;;18.50;99.90;;;;;;5016554;28;20470;-50
2022/06/21 00:08:59;;;;;;;9.13;5.57;;;18.50;99.90;;;;;;5016043;28;20049;-49
2022/06/21 00:11:32;;;;;;;9.88;6.03;;;18.40;99.90;;;;;;5016334;28;20099;-51
2022/06/21 00:14:00;;;;;;;11.93;7.25;;;18.40;99.90;;;;;;5015354;28;20050;-50
2022/06/21 00:16:29;;;;;;;9.18;5.70;;;18.40;99.90;;;;;;5016415;28;20045;-51
2022/06/21 00:18:57;;;;;;;11.60;6.38;;;18.40;99.90;;;;;;5016349;28;20041;-51
2022/06/21 00:21:27;;;;;;;9.77;5.63;;;18.40;99.90;;;;;;5016833;28;20111;-50
2022/06/21 00:23:56;;;;;;;8.43;5.68;;;18.40;99.90;;;;;;5016231;28;20045;-50
2022/06/21 00:26:26;;;;;;;7.70;5.43;;;18.30;99.90;;;;;;5013185;28;20351;-51
2022/06/21 00:28:53;;;;;;;7.78;5.47;;;18.40;99.90;;;;;;5009937;28;20054;-51
2022/06/21 00:31:27;;;;;;;7.80;5.80;;;18.30;99.90;;;;;;4997136;28;20136;-52
2022/06/21 00:33:55;;;;;;;10.38;5.88;;;18.30;99.90;;;;;;4996292;28;20469;-49
2022/06/21 00:36:29;;;;;;;12.32;6.35;;;18.30;99.90;;;;;;5000865;28;20096;-51
2022/06/21 00:38:58;;;;;;;7.93;5.65;;;18.20;99.90;;;;;;5015612;28;20092;-50
2022/06/21 00:41:56;;;;;;;8.05;6.35;;;18.20;99.90;;;;;;5016546;28;20811;-49
2022/06/21 00:44:32;;;;;;;9.30;6.28;;;18.10;99.90;;;;;;5015766;28;20052;-50
2022/06/21 00:47:06;;;;;;;10.37;6.77;;;18.10;99.90;;;;;;5016192;28;20200;-49
2022/06/21 00:49:43;;;;;;;12.77;6.85;;;18.00;99.90;;;;;;5015940;28;20060;-52
2022/06/21 00:52:16;;;;;;;9.13;6.80;;;18.00;99.90;;;;;;5015767;28;20053;-51
2022/06/21 00:54:51;;;;;;;9.27;6.47;;;17.90;99.90;;;;;;5016456;28;20723;-49
2022/06/21 00:57:21;;;;;;;12.95;7.22;;;17.80;99.90;;;;;;5015917;28;20565;-50
2022/06/21 00:59:50;;;;;;;11.43;6.95;;;17.80;99.90;;;;;;5014895;28;20831;-49
2022/06/21 01:02:31;;;;;;;13.38;7.40;;;17.80;99.90;;;;;;5015538;28;20119;-51
2022/06/21 01:05:02;;;;;;;7.65;5.63;;;17.70;99.90;;;;;;5015999;28;20056;-52
2022/06/21 01:07:29;;;;;;;10.85;6.30;;;17.70;99.90;;;;;;5015007;28;20045;-51
2022/06/21 01:10:05;;;;;;;8.73;6.85;;;17.60;99.90;;;;;;5015139;28;20038;-50
2022/06/21 01:12:38;;;;;;;8.55;5.97;;;17.70;99.90;;;;;;5015332;28;20404;-51
2022/06/21 01:15:24;;;;;;;9.35;6.07;;;17.60;99.90;;;;;;5015849;28;20080;-52
2022/06/21 01:17:56;;;;;;;8.45;6.18;;;17.60;99.90;;;;;;5015033;28;20103;-52
2022/06/21 01:20:26;;;;;;;10.98;6.47;;;17.60;99.90;;;;;;5015109;28;20135;-53
2022/06/21 01:23:17;;;;;;;10.13;6.15;;;17.60;99.90;;;;;;5014615;28;20053;-51
2022/06/21 01:26:08;;;;;;;12.52;6.70;;;17.60;99.90;;;;;;5015678;28;20049;-51
2022/06/21 01:28:35;;;;;;;14.50;8.30;;;17.50;99.90;;;;;;5012302;28;20033;-50
2022/06/21 01:31:02;;;;;;;11.68;6.53;;;17.50;99.90;;;;;;5015260;28;20045;-51
2022/06/21 01:33:41;;;;;;;8.85;6.55;;;17.50;99.90;;;;;;5015187;28;20097;-51
2022/06/21 01:36:24;;;;;;;8.07;6.32;;;17.40;99.90;;;;;;5015589;28;20529;-49
2022/06/21 01:39:13;;;;;;;7.13;6.05;;;17.40;99.90;;;;;;5014309;28;20050;-52
2022/06/21 01:41:46;;;;;;;8.60;6.85;;;17.40;99.90;;;;;;5014965;28;20568;-49
2022/06/21 01:44:18;;;;;;;12.52;7.78;;;17.40;99.90;;;;;;5015271;28;20777;-50
2022/06/21 01:46:45;;;;;;;9.75;6.80;;;17.30;99.90;;;;;;5014462;28;20045;-49
2022/06/21 01:49:17;;;;;;;7.53;6.75;;;17.30;99.90;;;;;;5014830;28;20045;-52
2022/06/21 01:51:58;;;;;;;13.75;9.00;;;17.20;99.90;;;;;;5014980;28;20126;-51
2022/06/21 01:54:30;;;;;;;9.30;7.43;;;17.20;99.90;;;;;;5015138;28;20053;-52
2022/06/21 01:56:56;;;;;;;10.35;8.57;;;17.10;99.90;;;;;;5014242;28;20045;-51
2022/06/21 01:59:36;;;;;;;10.48;7.55;;;17.10;99.90;;;;;;5012862;28;20598;-51
2022/06/21 02:02:19;;;;;;;12.55;9.13;;;17.00;99.90;;;;;;5013210;28;20049;-51
2022/06/21 02:05:01;;;;;;;15.07;8.05;;;17.00;99.90;;;;;;5014843;28;20053;-52
2022/06/21 02:07:34;;;;;;;10.20;6.97;;;17.00;99.90;;;;;;5014746;28;20056;-52
2022/06/21 02:10:10;;;;;;;11.23;6.40;;;16.90;99.90;;;;;;5008477;28;20048;-50
2022/06/21 02:12:58;;;;;;;9.18;7.97;;;16.90;99.90;;;;;;5014151;28;20056;-52
2022/06/21 02:15:37;;;;;;;10.45;6.55;;;16.90;99.90;;;;;;5015372;28;20825;-51
2022/06/21 02:18:10;;;;;;;13.20;8.38;;;16.90;99.90;;;;;;5014054;28;20144;-52
2022/06/21 02:20:49;;;;;;;8.77;6.68;;;16.90;99.90;;;;;;5015651;28;20045;-50
2022/06/21 02:23:18;;;;;;;10.20;6.97;;;16.90;99.90;;;;;;5014809;28;20053;-54
2022/06/21 02:25:45;;;;;;;12.38;7.50;;;16.80;99.90;;;;;;5016175;28;20107;-50
2022/06/21 02:28:15;;;;;;;11.65;7.85;;;16.80;99.90;;;;;;5011659;28;20636;-51
2022/06/21 02:30:43;;;;;;;8.77;7.60;;;16.80;99.90;;;;;;5013885;28;20943;-51
2022/06/21 02:33:21;;;;;;;11.88;8.35;;;16.80;99.90;;;;;;5015441;28;20045;-52
2022/06/21 02:35:53;;;;;;;14.88;8.63;;;16.80;99.90;;;;;;5015218;28;20049;-53
2022/06/21 02:38:43;;;;;;;11.77;7.75;;;16.80;99.90;;;;;;5001135;28;20045;-52
2022/06/21 02:41:25;;;;;;;9.93;8.05;;;16.70;99.90;;;;;;5015148;28;20744;-50
2022/06/21 02:44:01;;;;;;;10.02;8.23;;;16.60;99.90;;;;;;5014975;28;20080;-52
2022/06/21 02:46:35;;;;;;;10.25;7.45;;;16.60;99.90;;;;;;5014476;28;20057;-50
2022/06/21 02:49:19;;;;;;;10.77;8.65;;;16.60;99.90;;;;;;5015103;28;20067;-52
2022/06/21 02:51:55;;;;;;;8.63;7.78;;;16.60;99.90;;;;;;5014712;28;20055;-52
2022/06/21 02:54:31;;;;;;;12.35;8.63;;;16.50;99.90;;;;;;5013911;28;20049;-50
2022/06/21 02:57:06;;;;;;;8.07;7.28;;;16.50;99.90;;;;;;5015018;28;20088;-52
2022/06/21 02:59:36;;;;;;;12.45;8.40;;;16.40;99.90;;;;;;5013849;28;20056;-52
2022/06/21 03:02:11;;;;;;;10.23;9.10;;;16.40;99.90;;;;;;5011895;28;20088;-52
2022/06/21 03:04:47;;;;;;;9.63;8.52;;;16.40;99.90;;;;;;4995511;28;20049;-51
2022/06/21 03:07:30;;;;;;;16.38;11.35;;;16.30;99.90;;;;;;4995049;28;20038;-51
2022/06/21 03:09:58;;;;;;;11.07;9.02;;;16.30;99.90;;;;;;5007869;28;20045;-52
2022/06/21 03:12:31;;;;;;;11.15;9.48;;;16.20;99.90;;;;;;5014492;28;20115;-50
2022/06/21 03:15:03;;;;;;;19.27;10.35;;;16.10;99.90;;;;;;5014532;28;20575;-52
2022/06/21 03:17:42;;;;;;;12.00;9.40;;;16.10;99.90;;;;;;5014585;28;20049;-52
2022/06/21 03:20:17;;;;;;;11.40;9.30;;;16.10;99.90;;;;;;5014181;28;20042;-52
2022/06/21 03:22:45;;;;;;;10.68;8.82;;;16.10;99.90;;;;;;5015125;28;20042;-55
2022/06/21 03:25:32;;;;;;;11.60;9.85;;;16.10;99.90;;;;;;5014416;28;20057;-57
2022/06/21 03:28:00;;;;;;;12.35;9.07;;;16.00;99.90;;;;;;5014079;28;20053;-51
2022/06/21 03:30:34;;;;;;;11.02;9.88;;;16.10;99.90;;;;;;5011537;28;20057;-50
2022/06/21 03:33:03;;;;;;;11.20;8.88;;;16.00;99.90;;;;;;4995129;28;20049;-49
2022/06/21 03:35:34;;;;;;;11.65;9.43;;;16.00;99.90;;;;;;4994574;28;20045;-51
2022/06/21 03:38:01;;;;;;;12.60;10.30;;;16.00;99.90;;;;;;5011931;28;20050;-49
2022/06/21 03:43:29;;;;;;;12.15;9.88;;;16.10;99.90;;;;;;4994924;28;20125;-51
2022/06/21 03:45:59;;;;;;;9.80;8.48;;;16.10;99.90;;;;;;4994483;28;20599;-49
2022/06/21 03:48:46;;;;;;;10.68;8.05;;;16.10;99.90;;;;;;5010813;28;20668;-51
2022/06/21 03:51:16;;;;;;;11.15;8.20;;;16.10;99.90;;;;;;5014134;28;20045;-49
2022/06/21 03:53:51;;;;;;;10.48;9.38;;;16.10;99.90;;;;;;5014698;28;20054;-51
2022/06/21 03:56:27;;;;;;;16.25;10.23;;;16.10;99.90;;;;;;5014573;28;20099;-49
2022/06/21 03:58:58;;;;;;;13.45;9.05;;;16.10;99.90;;;;;;5014121;28;20045;-52
2022/06/21 04:01:35;;;;;;;12.80;9.20;;;16.10;99.90;;;;;;5014581;28;20064;-51
2022/06/21 04:04:38;;;;;;;10.68;9.07;;;16.00;99.90;;;;;;4993775;28;20077;-51
2022/06/21 04:07:29;;;;;;;9.50;8.50;;;16.10;99.90;;;;;;4987369;28;20061;-49
2022/06/21 04:10:08;;;;;;;22.70;11.00;;;16.10;99.90;;;;;;5007369;28;20037;-49
2022/06/21 04:12:58;;;;;;;14.20;10.25;;;16.20;99.90;;;;;;5013777;28;20042;-49
2022/06/21 04:15:46;;;;;;;10.40;8.48;;;16.20;99.90;;;;;;5014374;28;20041;-49
2022/06/21 04:18:26;;;;;;;10.93;8.50;;;16.30;99.90;;;;;;5013875;28;20049;-49
2022/06/21 04:21:15;;;;;;;12.23;10.93;;;16.30;99.90;;;;;;5013503;28;20506;-51
2022/06/21 04:24:05;;;;;;;11.73;10.25;;;16.40;99.90;;;;;;5012520;28;20536;-49
2022/06/21 04:26:44;;;;;;;11.77;10.52;;;16.40;99.90;;;;;;5013927;28;20608;-50
2022/06/21 04:29:26;;;;;;;13.73;10.88;;;16.50;99.90;;;;;;5012185;28;20045;-49
2022/06/21 04:32:20;;;;;;;10.90;9.70;;;16.50;99.90;;;;;;5011530;28;20048;-50
2022/06/21 04:35:21;;;;;;;15.38;12.45;;;16.60;99.90;;;;;;5013693;28;20049;-49
2022/06/21 04:38:10;;;;;;;20.05;14.23;;;16.60;99.90;;;;;;5012313;28;20043;-49
2022/06/21 04:40:39;;;;;;;19.83;14.05;;;16.70;99.90;;;;;;4995097;28;20475;-52
2022/06/21 04:43:13;;;;;;;19.92;15.15;;;16.80;99.90;;;;;;5016390;28;20041;-51
2022/06/21 04:45:57;;;;;;;23.50;19.63;;;16.80;99.90;;;;;;5017864;28;20045;-52
2022/06/21 04:48:32;;;;;;;20.65;17.02;;;16.90;99.90;;;;;;5016638;28;20037;-48
2022/06/21 04:51:19;;;;;;;18.77;16.45;;;16.90;99.90;;;;;;5017264;28;20087;-51
2022/06/21 04:53:54;;;;;;;21.70;16.20;;;16.90;99.90;;;;;;5017605;28;20064;-49
2022/06/21 04:56:41;;;;;;;14.75;12.85;;;16.90;99.90;;;;;;5017511;28;20060;-49
2022/06/21 04:59:21;;;;;;;23.08;14.63;;;16.90;99.90;;;;;;5015233;28;20046;-50
2022/06/21 05:01:48;;;;;;;22.10;14.35;;;17.00;99.90;;;;;;5016589;28;20044;-51
2022/06/21 05:04:28;;;;;;;15.68;13.55;;;17.00;99.90;;;;;;5015758;28;20209;-51
2022/06/21 05:06:58;;;;;;;19.02;14.93;;;17.00;99.90;;;;;;5015952;28;20661;-48
2022/06/21 05:09:30;;;;;;;18.08;15.93;;;17.10;99.90;;;;;;5014441;28;20058;-50
2022/06/21 05:12:05;;;;;;;17.00;13.88;;;17.10;99.90;;;;;;5016952;28;20049;-47
2022/06/21 05:14:39;;;;;;;23.00;15.60;;;17.20;99.90;;;;;;5016352;28;20045;-50
2022/06/21 05:17:11;;;;;;;20.00;12.52;;;17.20;99.90;;;;;;5016739;28;20450;-63
2022/06/21 05:19:43;;;;;;;19.65;15.93;;;17.30;99.90;;;;;;5016467;28;20496;-50
2022/06/21 05:22:20;;;;;;;15.05;12.48;;;17.30;99.90;;;;;;5017223;28;20083;-49
2022/06/21 05:24:48;;;;;;;22.38;15.10;;;17.40;99.90;;;;;;5016671;28;20492;-49
2022/06/21 05:27:22;;;;;;;17.45;14.00;;;17.40;99.90;;;;;;5016856;28;20041;-49
2022/06/21 05:29:57;;;;;;;17.42;12.70;;;17.40;99.90;;;;;;5016236;28;20520;-48
2022/06/21 05:32:30;;;;;;;31.08;14.63;;;17.40;99.90;;;;;;5011743;28;20052;-51
2022/06/21 05:35:08;;;;;;;25.20;15.35;;;17.50;99.90;;;;;;4995253;28;20053;-51
2022/06/21 05:37:46;;;;;;;16.52;12.98;;;17.60;99.90;;;;;;5009703;28;20139;-51
2022/06/21 05:40:46;;;;;;;24.30;17.20;;;17.70;99.90;;;;;;5015071;28;20045;-49
2022/06/21 05:43:20;;;;;;;20.92;14.30;;;17.80;99.90;;;;;;5014818;28;20095;-50
2022/06/21 05:45:53;;;;;;;16.75;12.65;;;17.90;99.90;;;;;;5016453;28;20049;-50
2022/06/21 05:48:26;;;;;;;20.42;16.15;;;18.00;99.90;;;;;;5015574;28;20049;-51
2022/06/21 05:50:53;;;;;;;17.25;12.95;;;18.10;99.90;;;;;;5016338;28;20061;-49
2022/06/21 05:53:27;;;;;;;19.13;14.38;;;18.10;99.90;;;;;;5015445;28;20148;-51
2022/06/21 05:55:54;;;;;;;16.48;14.75;;;18.20;99.90;;;;;;5016230;28;20080;-49
2022/06/21 05:58:23;;;;;;;26.95;16.20;;;18.30;99.90;;;;;;5015443;28;20041;-49
2022/06/21 06:00:56;;;;;;;19.13;14.90;;;18.30;99.90;;;;;;5016146;28;20115;-48
2022/06/21 06:03:52;;;;;;;17.00;14.55;;;18.40;99.90;;;;;;5014599;28;20045;-49
2022/06/21 06:06:22;;;;;;;;;;;18.50;99.90;;;;;;5016980;28;20959;-48
2022/06/21 06:08:53;;;;;;;20.48;16.15;;;18.50;99.90;;;;;;5015234;28;20619;-50
2022/06/21 06:11:57;;;;;;;18.65;16.35;;;18.60;99.90;;;;;;5015959;28;20107;-50
2022/06/21 06:14:16;;;;;;;16.70;12.95;;;18.60;99.90;;;;;;5015700;28;20049;-48
2022/06/21 06:16:46;;;;;;;16.08;12.50;;;18.70;99.90;;;;;;5015880;28;20038;-51
2022/06/21 06:19:43;;;;;;;21.50;15.85;;;18.60;99.90;;;;;;5015971;28;20707;-51
2022/06/21 06:22:13;;;;;;;17.42;15.38;;;18.70;99.90;;;;;;5015533;28;20045;-51
2022/06/21 06:24:47;;;;;;;17.45;14.23;;;18.70;99.90;;;;;;5014930;28;20045;-57
2022/06/21 06:27:48;;;;;;;20.33;13.48;;;18.80;99.90;;;;;;5014999;28;20045;-48
2022/06/21 06:30:22;;;;;;;17.88;13.45;;;18.90;99.90;;;;;;4995405;28;20099;-48
2022/06/21 06:33:17;;;;;;;14.82;12.38;;;19.00;99.90;;;;;;5011221;28;20033;-50
2022/06/21 06:35:45;;;;;;;15.23;13.45;;;19.00;99.90;;;;;;5012239;28;20045;-49
2022/06/21 06:38:14;;;;;;;18.95;14.63;;;19.10;99.90;;;;;;5013675;28;20049;-48
2022/06/21 06:40:57;;;;;;;19.15;14.52;;;19.10;99.90;;;;;;5014684;28;20045;-48
2022/06/21 06:43:40;;;;;;;17.05;13.98;;;19.10;99.90;;;;;;4994415;28;20050;-49
2022/06/21 06:46:17;;;;;;;16.00;11.65;;;19.20;99.90;;;;;;4993029;28;20085;-48
2022/06/21 06:48:45;;;;;;;14.45;12.95;;;19.20;99.90;;;;;;5012908;28;20067;-49
2022/06/21 06:51:15;;;;;;;16.20;13.65;;;19.30;99.90;;;;;;5014229;28;20049;-50
2022/06/21 06:53:50;;;;;;;20.58;12.80;;;19.30;99.90;;;;;;5012934;28;20144;-48
2022/06/21 06:56:27;;;;;;;14.35;11.52;;;19.40;99.90;;;;;;5014916;28;20139;-48
2022/06/21 06:59:02;;;;;;;17.20;13.27;;;19.40;99.90;;;;;;5014929;28;20038;-57
2022/06/21 07:02:06;;;;;;;19.17;16.02;;;19.60;99.90;;;;;;5014359;28;20065;-56
2022/06/21 07:04:37;;;;;;;14.45;12.85;;;19.80;99.90;;;;;;4982384;28;20172;-56
2022/06/21 07:07:14;;;;;;;22.90;16.48;;;20.00;99.90;;;;;;5012157;28;20050;-57
2022/06/21 07:09:44;;;;;;;;;;;20.20;99.90;;;;;;5013080;28;20132;-56
2022/06/21 07:12:18;;;;;;;17.23;15.25;;;20.30;99.90;;;;;;5012273;28;19921;-57
2022/06/21 07:14:47;;;;;;;16.15;13.73;;;20.30;99.90;;;;;;5013852;28;20055;-57
2022/06/21 07:17:25;;;;;;;18.52;14.63;;;20.30;99.90;;;;;;5013611;28;20080;-55
2022/06/21 07:19:53;;;;;;;13.45;11.45;;;20.20;99.90;;;;;;5013705;28;20125;-60
2022/06/21 07:22:26;;;;;;;18.50;12.10;;;20.20;99.90;;;;;;5012988;28;20053;-56
2022/06/21 07:25:12;;;;;;;13.48;11.68;;;20.20;99.90;;;;;;5013577;28;20045;-59
2022/06/21 07:27:43;;;;;;;17.15;12.18;;;20.30;99.90;;;;;;5013625;28;20842;-57
2022/06/21 07:30:14;;;;;;;18.27;13.25;;;20.50;99.90;;;;;;5013538;28;20050;-58
2022/06/21 07:32:50;;;;;;;16.65;14.07;;;20.70;99.90;;;;;;5013013;28;20056;-56
2022/06/21 07:35:24;;;;;;;22.60;14.85;;;20.80;99.90;;;;;;5012778;28;20042;-55
2022/06/21 07:37:57;;;;;;;28.20;17.80;;;21.00;99.90;;;;;;5012157;28;20042;-53
2022/06/21 07:40:34;;;;;;;20.58;13.25;;;21.10;99.90;;;;;;4996226;28;20069;-55
2022/06/21 07:43:19;;;;;;;26.08;15.65;;;21.10;99.90;;;;;;5014009;28;20775;-56
2022/06/21 07:46:08;;;;;;;21.67;12.00;;;21.20;99.90;;;;;;5013565;28;20045;-55
2022/06/21 07:48:38;;;;;;;20.80;15.63;;;21.40;99.90;;;;;;5013731;28;20039;-55
2022/06/21 07:51:14;;;;;;;15.18;12.00;;;21.50;99.90;;;;;;5014183;28;20048;-55
2022/06/21 07:53:49;;;;;;;22.33;15.43;;;21.60;99.90;;;;;;5012987;28;20041;-55
2022/06/21 07:56:29;;;;;;;20.77;14.25;;;21.60;99.90;;;;;;5014294;28;20423;-55
2022/06/21 07:59:01;;;;;;;10.18;9.07;;;21.70;99.90;;;;;;5012745;28;20727;-57
2022/06/21 08:07:22;;;;;;;21.45;13.82;;;21.90;99.90;;;;;;5013847;28;20036;-52
2022/06/21 08:09:57;;;;;;;18.42;13.32;;;22.00;99.90;;;;;;5013332;28;20052;-54
2022/06/21 08:12:25;;;;;;;15.00;11.93;;;22.00;99.90;;;;;;5013987;28;20045;-57
2022/06/21 08:14:52;;;;;;;15.48;12.07;;;22.10;99.90;;;;;;5012548;28;20061;-54
2022/06/21 08:17:23;;;;;;;20.90;13.80;;;22.30;99.90;;;;;;5015811;28;20543;-54
2022/06/21 08:20:25;;;;;;;17.88;13.82;;;22.40;99.90;;;;;;5015161;28;20052;-58
2022/06/21 08:23:07;;;;;;;20.30;12.43;;;22.60;99.90;;;;;;4974963;28;20535;-52
2022/06/21 08:25:42;;;;;;;22.23;14.65;;;22.80;99.90;;;;;;5018303;28;20083;-53
2022/06/21 08:28:25;;;;;;;15.40;13.80;;;23.10;99.90;;;;;;5017587;28;20045;-54
2022/06/21 08:30:58;;;;;;;15.40;11.88;;;23.30;99.90;;;;;;5002277;28;20057;-54
2022/06/21 08:33:35;;;;;;;21.48;12.25;;;23.60;99.90;;;;;;5017787;28;20156;-56
2022/06/21 08:36:11;;;;;;;15.13;13.13;;;23.90;99.90;;;;;;5011389;28;20064;-55
2022/06/21 08:39:02;;;;;;;27.05;14.23;;;24.10;99.90;;;;;;5017497;28;20037;-53
2022/06/21 08:41:57;;;;;;;25.27;13.50;;;24.10;99.90;;;;;;5015861;28;20552;-56
2022/06/21 08:48:38;;;;;;;20.80;13.10;;;24.30;99.90;;;;;;4985711;28;20058;-57
2022/06/21 08:51:26;;;;;;;17.80;12.73;;;24.50;99.90;;;;;;4998061;28;20054;-57
2022/06/21 08:54:03;;;;;;;18.90;12.88;;;24.80;99.90;;;;;;4998181;28;20056;-57
2022/06/21 08:56:55;;;;;;;22.95;12.73;;;25.10;99.90;;;;;;4997867;28;20730;-58
2022/06/21 08:59:46;;;;;;;17.33;11.45;;;25.40;99.90;;;;;;4996705;28;20060;-58
2022/06/21 09:02:50;;;;;;;14.05;11.85;;;25.60;99.90;;;;;;4997604;28;20046;-57
2022/06/21 09:05:50;;;;;;;22.45;10.38;;;26.00;99.90;;;;;;4997783;28;20678;-58
2022/06/21 09:08:23;;;;;;;21.10;9.27;;;26.30;99.90;;;;;;5003468;28;20044;-59
2022/06/21 09:11:16;;;;;;;14.77;8.43;;;26.60;99.90;;;;;;4997557;28;20050;-57
2022/06/21 09:13:52;;;;;;;20.48;12.38;;;26.80;99.90;;;;;;4997474;28;20112;-61
2022/06/21 09:16:38;;;;;;;16.85;9.90;;;26.80;99.90;;;;;;4997800;28;20045;-56
2022/06/21 09:19:10;;;;;;;18.92;12.18;;;26.70;99.90;;;;;;5010272;28;20108;-54
2022/06/21 09:21:51;;;;;;;23.02;10.48;;;26.70;99.90;;;;;;5017251;28;20642;-56
2022/06/21 09:24:40;;;;;;;13.93;9.55;;;26.60;99.90;;;;;;5016496;28;20041;-56
2022/06/21 09:27:15;;;;;;;9.07;7.40;;;26.80;99.90;;;;;;5016406;28;20041;-55
2022/06/21 09:30:04;;;;;;;16.35;9.27;;;27.00;99.90;;;;;;5016487;28;20497;-54
2022/06/21 09:32:55;;;;;;;15.82;9.63;;;27.30;99.90;;;;;;5015730;28;20579;-56
2022/06/21 09:35:31;;;;;;;18.65;10.70;;;27.60;99.90;;;;;;5012439;28;20070;-57
2022/06/21 09:38:41;;;;;;;11.80;7.28;;;27.90;99.90;;;;;;5015819;28;20045;-55
2022/06/21 09:41:20;;;;;;;20.55;10.88;;;28.00;99.90;;;;;;4967892;28;20076;-55
2022/06/21 09:44:19;;;;;;;10.52;7.10;;;28.10;99.90;;;;;;5015425;28;20741;-56
2022/06/21 09:47:03;;;;;;;20.83;9.82;;;28.00;99.90;;;;;;5010431;28;20545;-56
2022/06/21 09:49:45;;;;;;;15.35;10.07;;;27.90;99.90;;;;;;5015110;28;20048;-55
2022/06/21 09:52:50;;;;;;;14.18;8.55;;;27.50;99.90;;;;;;5014893;28;20969;-56
2022/06/21 09:55:33;;;;;;;14.25;8.75;;;27.10;99.90;;;;;;5016526;28;20065;-57
2022/06/21 09:58:36;;;;;;;11.77;8.82;;;26.70;99.90;;;;;;5014974;28;20045;-56
2022/06/21 10:01:18;;;;;;;14.93;10.38;;;26.40;99.90;;;;;;4986157;28;20053;-56
2022/06/21 10:04:31;;;;;;;14.63;10.23;;;26.20;99.90;;;;;;5015449;28;20045;-57
2022/06/21 10:07:35;;;;;;;11.73;7.85;;;26.00;99.90;;;;;;5014714;28;20073;-58
2022/06/21 10:10:32;;;;;;;14.55;9.27;;;26.00;99.90;;;;;;5009116;28;20525;-57
2022/06/21 10:13:23;;;;;;;22.73;12.25;;;26.00;99.90;;;;;;5016130;28;20049;-57
2022/06/21 10:16:05;;;;;;;11.20;9.38;;;26.10;99.90;;;;;;5014992;28;20111;-58
2022/06/21 10:18:32;;;;;;;16.02;10.48;;;26.10;99.90;;;;;;5015313;28;20610;-57
2022/06/21 10:21:22;;;;;;;15.57;9.45;;;26.20;99.90;;;;;;5016280;28;20050;-59
2022/06/21 10:24:07;;;;;;;13.27;10.13;;;26.30;99.90;;;;;;5015498;28;20037;-57
2022/06/21 10:26:37;;;;;;;11.55;9.10;;;26.40;99.90;;;;;;5016098;28;20079;-57
2022/06/21 10:29:25;;;;;;;12.85;9.45;;;26.60;99.90;;;;;;5015237;28;20048;-55
2022/06/21 10:32:06;;;;;;;9.18;8.05;;;26.70;99.90;;;;;;5016549;28;20053;-56
2022/06/21 10:34:49;;;;;;;16.55;11.00;;;26.70;99.90;;;;;;5015806;28;20057;-55
2022/06/21 10:37:30;;;;;;;15.25;9.98;;;26.70;99.90;;;;;;5008085;28;20277;-56
2022/06/21 10:40:26;;;;;;;13.45;10.13;;;26.80;99.90;;;;;;5013695;28;20037;-57
2022/06/21 10:43:02;;;;;;;14.88;9.52;;;26.90;99.90;;;;;;5015737;28;20052;-55
2022/06/21 10:45:31;;;;;;;9.38;8.32;;;27.00;99.90;;;;;;5015444;28;20045;-56
2022/06/21 10:48:35;;;;;;;13.50;10.23;;;27.20;99.90;;;;;;5015902;28;20033;-55
2022/06/21 10:51:24;;;;;;;13.05;8.20;;;27.40;99.90;;;;;;5014559;28;20048;-58
2022/06/21 10:54:16;;;;;;;12.77;8.93;;;27.70;99.90;;;;;;5016225;28;20045;-58
2022/06/21 10:57:09;;;;;;;13.25;8.75;;;28.00;99.90;;;;;;5015007;28;20045;-63
2022/06/21 11:02:56;;;;;;;10.05;7.70;;;28.40;99.90;;;;;;5015375;28;20075;-62
2022/06/21 11:05:35;;;;;;;16.27;9.48;;;28.50;99.90;;;;;;5014045;28;20045;-62
2022/06/21 11:08:04;;;;;;;16.67;8.48;;;28.80;99.60;;;;;;5014749;28;20045;-63
2022/06/21 11:10:56;;;;;;;11.45;7.65;;;28.90;98.30;;;;;;5014837;28;20271;-62
2022/06/21 11:13:34;;;;;;;11.90;8.73;;;29.00;98.50;;;;;;5015056;28;20045;-63
2022/06/21 11:16:08;;;;;;;16.98;10.52;;;29.10;96.80;;;;;;5013721;28;20068;-63
2022/06/21 11:18:35;;;;;;;17.25;8.32;;;29.10;95.00;;;;;;5012907;28;20049;-63
2022/06/21 11:21:20;;;;;;;16.27;8.15;;;29.00;94.30;;;;;;5015048;28;20112;-62
2022/06/21 11:24:04;;;;;;;10.45;7.75;;;28.90;95.40;;;;;;5014445;28;20041;-63
2022/06/21 11:27:09;;;;;;;16.33;8.90;;;29.00;96.60;;;;;;5015501;28;20068;-63
2022/06/21 11:29:42;;;;;;;16.73;7.75;;;29.10;94.20;;;;;;5014164;28;20052;-63
2022/06/21 11:32:14;;;;;;;12.82;7.35;;;29.00;93.60;;;;;;5013935;28;20061;-62
2022/06/21 11:35:23;;;;;;;11.73;6.38;;;29.00;95.10;;;;;;5012997;28;20049;-63
2022/06/21 11:38:03;;;;;;;12.75;6.88;;;29.00;95.40;;;;;;5013409;28;20045;-63
2022/06/21 11:40:44;;;;;;;12.35;6.28;;;29.20;93.00;;;;;;5011491;28;20750;-63
2022/06/21 11:43:24;;;;;;;10.50;8.90;;;29.40;94.30;;;;;;5014458;28;20041;-63
2022/06/21 11:46:14;;;;;;;10.02;6.10;;;29.60;92.40;;;;;;5013065;28;20488;-64
2022/06/21 11:49:11;;;;;;;12.65;8.20;;;29.80;92.00;;;;;;5014509;28;20081;-63
2022/06/21 11:51:56;;;;;;;8.95;6.22;;;29.90;90.20;;;;;;5018910;28;20076;-63
2022/06/21 11:54:42;;;;;;;16.83;8.60;;;30.10;92.40;;;;;;5021814;28;20076;-63
2022/06/21 11:57:32;;;;;;;17.30;8.48;;;30.00;90.30;;;;;;5020634;28;20065;-63
2022/06/21 12:00:15;;;;;;;17.25;7.07;;;29.90;91.00;;;;;;5019021;28;20053;-63
2022/06/21 12:02:57;;;;;;;18.88;6.88;;;30.00;92.70;;;;;;5018546;28;20620;-68
2022/06/21 12:05:37;;;;;;;12.25;6.60;;;30.20;95.30;;;;;;5020840;28;20049;-63
2022/06/21 12:08:32;;;;;;;10.50;5.43;;;30.40;92.90;;;;;;5020935;28;20038;-64
2022/06/21 12:11:15;;;;;;;9.82;6.30;;;30.40;92.60;;;;;;5001666;28;20129;-64
2022/06/21 12:13:58;;;;;;;13.60;7.38;;;30.20;92.10;;;;;;5000978;28;20132;-63
2022/06/21 12:16:42;;;;;;;11.15;7.00;;;29.90;90.90;;;;;;5001571;28;20053;-63
2022/06/21 12:19:19;;;;;;;14.98;6.97;;;29.70;92.80;;;;;;4999891;28;20058;-63
2022/06/21 12:22:02;;;;;;;;;;;29.60;93.80;;;;;;5001093;28;20482;-63
2022/06/21 12:24:30;;;;;;;15.57;7.38;;;29.60;94.40;;;;;;4999018;28;19979;-64
2022/06/21 12:26:57;;;;;;;16.33;7.85;;;29.80;94.80;;;;;;5007084;28;20504;-63
2022/06/21 12:29:24;;;;;;;15.60;7.65;;;29.90;91.00;;;;;;5021141;28;20114;-64
2022/06/21 12:31:55;;;;;;;10.40;7.35;;;29.80;90.70;;;;;;5020414;28;20049;-63
2022/06/21 12:34:33;;;;;;;13.10;7.35;;;29.50;90.80;;;;;;5020881;28;20060;-63
2022/06/21 12:37:12;;;;;;;15.10;7.22;;;29.30;91.20;;;;;;5020692;28;20049;-65
2022/06/21 12:39:48;;;;;;;16.17;8.77;;;29.10;92.30;;;;;;5017276;28;20146;-63
2022/06/21 12:42:45;;;;;;;10.63;6.93;;;29.00;93.10;;;;;;5019889;28;20041;-63
2022/06/21 12:45:52;;;;;;;8.48;6.25;;;29.10;94.20;;;;;;5019227;28;20107;-63
2022/06/21 12:48:36;;;;;;;21.92;7.80;;;29.30;93.00;;;;;;5019968;28;20033;-63
2022/06/21 12:51:15;;;;;;;13.65;7.28;;;29.60;93.60;;;;;;5019965;28;20822;-63
2022/06/21 12:54:05;;;;;;;12.40;6.47;;;29.80;92.10;;;;;;5020384;28;20053;-63
2022/06/21 12:56:45;;;;;;;9.43;6.53;;;30.10;91.60;;;;;;5019619;28;20041;-63
2022/06/21 12:59:34;;;;;;;10.80;7.22;;;30.30;90.10;;;;;;5019944;28;20096;-63
2022/06/21 13:02:22;;;;;;;15.15;7.20;;;30.40;88.00;;;;;;5019337;28;20058;-63
2022/06/21 13:05:01;;;;;;;11.32;6.85;;;30.50;87.00;;;;;;5017454;28;20813;-63
2022/06/21 13:07:57;;;;;;;15.50;7.82;;;30.50;83.60;;;;;;4999068;28;20483;-63
2022/06/21 13:10:48;;;;;;;14.43;7.18;;;30.60;85.50;;;;;;5014028;28;20076;-63
2022/06/21 13:13:54;;;;;;;11.75;6.82;;;30.80;84.80;;;;;;5016104;28;20400;-64
2022/06/21 13:16:43;;;;;;;11.73;6.47;;;31.00;84.20;;;;;;5017747;28;20048;-63
2022/06/21 13:19:19;;;;;;;17.10;6.28;;;31.20;84.40;;;;;;5007452;28;20061;-63
2022/06/21 13:22:05;;;;;;;16.00;7.35;;;31.30;81.60;;;;;;5017119;28;20076;-63
2022/06/21 13:24:56;;;;;;;8.80;6.72;;;31.40;81.10;;;;;;5017191;28;20051;-63
2022/06/21 13:27:53;;;;;;;7.78;6.30;;;31.50;83.70;;;;;;5017141;28;20041;-62
2022/06/21 13:30:37;;;;;;;14.40;6.47;;;31.50;79.00;;;;;;5016990;28;20045;-63
2022/06/21 13:33:48;;;;;;;12.52;5.55;;;31.60;75.20;;;;;;5016361;28;20619;-62
2022/06/21 13:36:27;;;;;;;13.07;5.88;;;31.70;74.20;;;;;;5016646;28;20049;-63
2022/06/21 13:39:04;;;;;;;9.63;6.88;;;31.90;75.80;;;;;;5013294;28;20072;-63
2022/06/21 13:44:43;;;;;;;19.00;6.75;;;31.80;69.40;;;;;;5017751;28;20061;-63
2022/06/21 13:47:18;;;;;;;13.82;5.53;;;31.80;66.10;;;;;;5017119;28;20037;-63
2022/06/21 13:49:55;;;;;;;15.50;6.05;;;31.70;63.70;;;;;;5014527;28;20269;-63
2022/06/21 13:52:28;;;;;;;14.75;6.03;;;31.70;62.00;;;;;;5014774;28;20045;-63
2022/06/21 13:55:30;;;;;;;16.38;5.65;;;31.70;61.00;;;;;;5016622;28;20581;-63
2022/06/21 13:58:37;;;;;;;15.57;4.63;;;31.90;62.50;;;;;;5016561;28;20057;-63